NCAR-RAP Real-Time Weather Data

Output produced by METARs form (23 February 2017  18:41 UTC)
found at http://weather.rap.ucar.edu/surface/
 
Conditions at: KALB observed 23 February 2017  17:51 UTC
Temperature: 18.3°C (65°F)
Dewpoint: 6.1°C (43°F) [RH = 45%]
Pressure (altimeter): 29.72 inches Hg (1006.5 mb)
[Sea-level pressure: 1006.3 mb]
Winds: from the S (180 degrees) at 14 MPH (12 knots; 6.2 m/s)
gusting to 24 MPH (21 knots; 10.9 m/s)
Visibility: 10 or more miles (16+ km)
Ceiling: at least 12,000 feet AGL
Clouds: few clouds at 5000 feet AGL
Present Weather: no significant weather observed at this time
KALB 231751Z 18012G21KT 10SM FEW050 18/06 A2972 RMK AO2 SLP063 T01830061 10183 20061 58032

Conditions at: KALB observed 23 February 2017  16:51 UTC
Temperature: 15.6°C (60°F)
Dewpoint: 5.6°C (42°F) [RH = 51%]
Pressure (altimeter): 29.75 inches Hg (1007.5 mb)
[Sea-level pressure: 1007.3 mb]
Winds: from the S (180 degrees) at 20 MPH (17 knots; 8.8 m/s)
Visibility: 10 or more miles (16+ km)
Ceiling: at least 12,000 feet AGL
Clouds: few clouds at 7500 feet AGL
Present Weather: no significant weather observed at this time
KALB 231651Z 18017KT 10SM FEW075 16/06 A2975 RMK AO2 SLP073 T01560056

Conditions at: KALB observed 23 February 2017  15:51 UTC
Temperature: 13.3°C (56°F)
Dewpoint: 4.4°C (40°F) [RH = 55%]
Pressure (altimeter): 29.79 inches Hg (1008.9 mb)
[Sea-level pressure: 1008.6 mb]
Winds: from the S (170 degrees) at 14 MPH (12 knots; 6.2 m/s)
Visibility: 10 or more miles (16+ km)
Ceiling: 7000 feet AGL
Clouds: broken clouds at 7000 feet AGL
broken clouds at 8000 feet AGL
Present Weather: no significant weather observed at this time
KALB 231551Z 17012KT 10SM BKN070 BKN080 13/04 A2979 RMK AO2 SLP086 T01330044

Conditions at: KALB observed 23 February 2017  14:51 UTC
Temperature: 11.1°C (52°F)
Dewpoint: 3.9°C (39°F) [RH = 61%]
Pressure (altimeter): 29.81 inches Hg (1009.6 mb)
[Sea-level pressure: 1009.7 mb]
Winds: from the S (170 degrees) at 12 MPH (10 knots; 5.2 m/s)
Visibility: 10 or more miles (16+ km)
Ceiling: at least 12,000 feet AGL
Clouds: few clouds at 7000 feet AGL
Present Weather: no significant weather observed at this time
KALB 231451Z 17010KT 10SM FEW070 11/04 A2981 RMK AO2 SLP097 SCSL W-N T01110039 58006

Conditions at: KALB observed 23 February 2017  13:51 UTC
Temperature: 8.9°C (48°F)
Dewpoint: 3.3°C (38°F) [RH = 68%]
Pressure (altimeter): 29.82 inches Hg (1009.9 mb)
[Sea-level pressure: 1010.0 mb]
Winds: from the S (170 degrees) at 14 MPH (12 knots; 6.2 m/s)
Visibility: 10 or more miles (16+ km)
Ceiling: at least 12,000 feet AGL
Clouds: few clouds at 7000 feet AGL
Present Weather: no significant weather observed at this time
KALB 231351Z 17012KT 10SM FEW070 09/03 A2982 RMK AO2 SLP100 T00890033

Conditions at: KALB observed 23 February 2017  12:51 UTC
Temperature: 7.8°C (46°F)
Dewpoint: 2.8°C (37°F) [RH = 71%]
Pressure (altimeter): 29.83 inches Hg (1010.2 mb)
[Sea-level pressure: 1010.2 mb]
Winds: from the S (170 degrees) at 9 MPH (8 knots; 4.2 m/s)
Visibility: 10 or more miles (16+ km)
Ceiling: at least 12,000 feet AGL
Clouds: few clouds at 7000 feet AGL
Present Weather: no significant weather observed at this time
KALB 231251Z 17008KT 10SM FEW070 08/03 A2983 RMK AO2 SLP102 T00780028

Conditions at: KALB observed 23 February 2017  11:51 UTC
Temperature: 6.1°C (43°F)
Dewpoint: 2.2°C (36°F) [RH = 76%]
Pressure (altimeter): 29.83 inches Hg (1010.2 mb)
[Sea-level pressure: 1010.3 mb]
Winds: calm
Visibility: 10 or more miles (16+ km)
Ceiling: at least 12,000 feet AGL
Clouds: scattered clouds at 7000 feet AGL
Present Weather: no significant weather observed at this time
KALB 231151Z 00000KT 10SM SCT070 06/02 A2983 RMK AO2 SLP103 SCT V BKN T00610022 10078 20050 55003

Conditions at: KALB observed 23 February 2017  10:51 UTC
Temperature: 6.1°C (43°F)
Dewpoint: 2.2°C (36°F) [RH = 76%]
Pressure (altimeter): 29.83 inches Hg (1010.2 mb)
[Sea-level pressure: 1010.1 mb]
Winds: from the SSW (200 degrees) at 3 MPH (3 knots; 1.6 m/s)
Visibility: 10 or more miles (16+ km)
Ceiling: 7000 feet AGL
Clouds: few clouds at 5000 feet AGL
broken clouds at 7000 feet AGL
Present Weather: no significant weather observed at this time
KALB 231051Z 20003KT 10SM FEW050 BKN070 06/02 A2983 RMK AO2 SLP101 T00610022

Conditions at: KALB observed 23 February 2017  09:51 UTC
Temperature: 7.2°C (45°F)
Dewpoint: 2.2°C (36°F) [RH = 70%]
Pressure (altimeter): 29.83 inches Hg (1010.2 mb)
[Sea-level pressure: 1010.3 mb]
Winds: from the S (170 degrees) at 7 MPH (6 knots; 3.1 m/s)
Visibility: 10 or more miles (16+ km)
Ceiling: at least 12,000 feet AGL
Clouds: scattered clouds at 5000 feet AGL
scattered clouds at 8500 feet AGL
Present Weather: no significant weather observed at this time
KALB 230951Z 17006KT 10SM SCT050 SCT085 07/02 A2983 RMK AO2 SLP103 T00720022

Conditions at: KALB observed 23 February 2017  08:51 UTC
Temperature: 7.8°C (46°F)
Dewpoint: 2.8°C (37°F) [RH = 71%]
Pressure (altimeter): 29.84 inches Hg (1010.6 mb)
[Sea-level pressure: 1010.5 mb]
Winds: from the S (190 degrees) at 5 MPH (4 knots; 2.1 m/s)
Visibility: 10 or more miles (16+ km)
Ceiling: 6000 feet AGL
Clouds: overcast cloud deck at 6000 feet AGL
Present Weather: no significant weather observed at this time
KALB 230851Z 19004KT 10SM OVC060 08/03 A2984 RMK AO2 SLP105 T00780028 56008

Conditions at: KALB observed 23 February 2017  07:51 UTC
Temperature: 7.8°C (46°F)
Dewpoint: 2.8°C (37°F) [RH = 71%]
Pressure (altimeter): 29.84 inches Hg (1010.6 mb)
[Sea-level pressure: 1010.5 mb]
Winds: from the S (170 degrees) at 6 MPH (5 knots; 2.6 m/s)
Visibility: 10 or more miles (16+ km)
Ceiling: 5000 feet AGL
Clouds: broken clouds at 5000 feet AGL
overcast cloud deck at 6000 feet AGL
Present Weather: no significant weather observed at this time
KALB 230751Z 17005KT 10SM BKN050 OVC060 08/03 A2984 RMK AO2 SLP105 T00780028

Conditions at: KALB observed 23 February 2017  06:51 UTC
Temperature: 7.8°C (46°F)
Dewpoint: 2.2°C (36°F) [RH = 68%]
Pressure (altimeter): 29.86 inches Hg (1011.3 mb)
[Sea-level pressure: 1011.0 mb]
Winds: from the S (180 degrees) at 3 MPH (3 knots; 1.6 m/s)
Visibility: 10 or more miles (16+ km)
Ceiling: 5500 feet AGL
Clouds: overcast cloud deck at 5500 feet AGL
Present Weather: no significant weather observed at this time
KALB 230651Z 18003KT 10SM OVC055 08/02 A2986 RMK AO2 SLP110 T00780022